Lanark, Illinois
Current Conditions -  °F | °C
As of 11:35 PM on Sunday 19 Oct 2014 (Local Time) from KSFY Reporting Station
Clear Clear  
Wind Chill: 52°   Ceiling: Unl
Heat Index: 52°   Visibility: 10mi
Dew Point: 43°   Wind: 5mph
Humidity: 70%   Direction: 180°S
Pressure: 29.88"   Gusts: NA
Location:  42.1°N, 89.83°W
Report Text: KSFY 200435Z AUTO 18004KT 10SM CLR 11/06 A2988 RMK AO2 T01120060
Loading
Personal Weather Stations






























Interactive Weather Map New forecast layout! Learn more

10-Day Weather Forecast

Advertisements
Track Severe Weather on mobile